createdAt,value
2017-09-17T00:00:00.793Z,4.70
2017-09-17T00:00:05.027Z,4.70
2017-09-17T00:00:09.258Z,4.60
2017-09-17T00:00:14.262Z,4.40
2017-09-17T00:00:18.500Z,4.47
2017-09-17T00:00:22.747Z,4.50
2017-09-17T00:00:26.974Z,4.50
2017-09-17T00:00:31.980Z,4.50
2017-09-17T00:00:36.210Z,4.53
2017-09-17T00:00:40.455Z,4.50
2017-09-17T00:00:44.691Z,4.57
2017-09-17T00:00:49.703Z,4.70
2017-09-17T00:00:54.723Z,4.70
2017-09-17T00:00:59.731Z,4.80
2017-09-17T00:01:04.799Z,4.83
2017-09-17T00:01:09.044Z,5.00
2017-09-17T00:01:13.283Z,5.10
2017-09-17T00:01:17.523Z,5.20
2017-09-17T00:01:21.760Z,5.20
2017-09-17T00:01:26.000Z,5.25
2017-09-17T00:01:30.244Z,5.35
2017-09-17T00:01:34.489Z,5.30
2017-09-17T00:01:38.728Z,5.30
2017-09-17T00:01:42.963Z,5.30
2017-09-17T00:01:47.221Z,5.17
2017-09-17T00:01:51.470Z,5.10
2017-09-17T00:01:56.471Z,5.20
2017-09-17T00:02:01.476Z,5.07
2017-09-17T00:02:05.708Z,5.00
2017-09-17T00:02:09.952Z,4.95
2017-09-17T00:02:14.200Z,4.90
2017-09-17T00:02:19.218Z,5.00
2017-09-17T00:02:24.231Z,5.07
2017-09-17T00:02:29.236Z,5.00
2017-09-17T00:02:33.479Z,5.00
2017-09-17T00:02:37.719Z,5.00
2017-09-17T00:02:41.955Z,5.00
2017-09-17T00:02:46.959Z,4.95
2017-09-17T00:02:51.201Z,4.90
2017-09-17T00:02:55.434Z,4.80
2017-09-17T00:02:59.667Z,4.80
2017-09-17T00:03:04.680Z,4.70
2017-09-17T00:03:09.683Z,4.70
2017-09-17T00:03:13.934Z,4.67
2017-09-17T00:03:18.171Z,4.50
2017-09-17T00:03:22.399Z,4.55
2017-09-17T00:03:27.407Z,4.50
2017-09-17T00:03:31.640Z,4.47
2017-09-17T00:03:35.880Z,4.47
2017-09-17T00:03:40.111Z,4.60
2017-09-17T00:03:45.115Z,4.60
2017-09-17T00:03:49.346Z,4.60
2017-09-17T00:03:54.339Z,4.70
2017-09-17T00:03:58.580Z,4.72
2017-09-17T00:04:02.838Z,4.85
2017-09-17T00:04:07.076Z,4.80
2017-09-17T00:04:11.312Z,4.90
2017-09-17T00:04:15.539Z,4.90
2017-09-17T00:04:19.780Z,4.80
2017-09-17T00:04:24.012Z,4.70
2017-09-17T00:04:28.265Z,4.80
2017-09-17T00:04:32.803Z,4.90
2017-09-17T00:04:37.031Z,4.80
2017-09-17T00:04:41.273Z,4.90
2017-09-17T00:04:46.267Z,4.90
2017-09-17T00:04:50.540Z,5.00
2017-09-17T00:04:54.779Z,5.00
2017-09-17T00:04:59.783Z,5.00
2017-09-17T00:05:04.023Z,5.13
2017-09-17T00:05:08.287Z,5.20
2017-09-17T00:05:13.289Z,5.20
2017-09-17T00:05:17.539Z,5.33
2017-09-17T00:05:21.768Z,5.50
2017-09-17T00:05:26.003Z,5.50
2017-09-17T00:05:31.011Z,5.30
2017-09-17T00:05:35.691Z,5.30
2017-09-17T00:05:39.923Z,5.15
2017-09-17T00:05:44.150Z,5.20
2017-09-17T00:05:48.391Z,5.20
2017-09-17T00:05:52.633Z,5.10
2017-09-17T00:05:57.636Z,5.20
2017-09-17T00:06:01.867Z,5.13
2017-09-17T00:06:06.863Z,5.03
2017-09-17T00:06:11.871Z,5.17
2017-09-17T00:06:16.116Z,5.13
2017-09-17T00:06:20.376Z,5.00
2017-09-17T00:06:25.379Z,5.00
2017-09-17T00:06:29.614Z,4.93
2017-09-17T00:06:34.619Z,5.13
2017-09-17T00:06:39.620Z,5.20
2017-09-17T00:06:43.856Z,5.20
2017-09-17T00:06:48.870Z,5.10
2017-09-17T00:06:53.112Z,5.20
2017-09-17T00:06:57.343Z,5.10
2017-09-17T00:07:01.586Z,5.00
2017-09-17T00:07:05.843Z,5.10
2017-09-17T00:07:10.070Z,4.95
2017-09-17T00:07:14.318Z,4.90
2017-09-17T00:07:18.566Z,5.05
2017-09-17T00:07:23.852Z,5.10
2017-09-17T00:07:28.080Z,5.17
2017-09-17T00:07:33.085Z,5.10
2017-09-17T00:07:37.318Z,5.10
2017-09-17T00:07:41.562Z,5.10
2017-09-17T00:07:45.801Z,5.25
2017-09-17T00:07:50.805Z,5.20
2017-09-17T00:07:55.039Z,5.20
2017-09-17T00:07:59.288Z,5.20
2017-09-17T00:08:03.536Z,5.17
2017-09-17T00:08:07.767Z,5.20
2017-09-17T00:08:12.011Z,5.10
2017-09-17T00:08:16.239Z,5.00
2017-09-17T00:08:20.487Z,5.00
2017-09-17T00:08:24.722Z,5.10
2017-09-17T00:08:29.726Z,4.95
2017-09-17T00:08:33.976Z,4.93
2017-09-17T00:08:38.208Z,4.90
2017-09-17T00:08:42.451Z,4.80
2017-09-17T00:08:46.687Z,4.80
2017-09-17T00:08:50.923Z,4.80
2017-09-17T00:08:55.147Z,4.80
2017-09-17T00:08:59.391Z,4.90
2017-09-17T00:09:03.651Z,4.85
2017-09-17T00:09:07.887Z,4.75
2017-09-17T00:09:12.123Z,4.80
2017-09-17T00:09:16.361Z,4.85
2017-09-17T00:09:20.599Z,4.80
2017-09-17T00:09:24.848Z,4.70
2017-09-17T00:09:29.871Z,4.70
2017-09-17T00:09:34.115Z,4.73
2017-09-17T00:09:38.352Z,4.70
2017-09-17T00:09:43.363Z,4.70
2017-09-17T00:09:47.591Z,4.60
2017-09-17T00:09:51.830Z,4.60
2017-09-17T00:09:56.080Z,4.60
2017-09-17T00:10:00.310Z,4.50
2017-09-17T00:10:04.543Z,4.50
2017-09-17T00:10:08.784Z,4.50
2017-09-17T00:10:13.074Z,4.57
2017-09-17T00:10:18.083Z,4.50
2017-09-17T00:10:23.087Z,4.50
2017-09-17T00:10:27.339Z,4.60
2017-09-17T00:10:31.578Z,4.60
2017-09-17T00:10:35.832Z,4.60
2017-09-17T00:10:40.875Z,4.80
2017-09-17T00:10:45.083Z,4.90
2017-09-17T00:10:49.319Z,4.90
2017-09-17T00:10:54.319Z,4.90
2017-09-17T00:10:58.547Z,4.90
2017-09-17T00:11:02.806Z,4.93
2017-09-17T00:11:07.039Z,4.90
2017-09-17T00:11:11.511Z,4.90
2017-09-17T00:11:15.763Z,4.90
2017-09-17T00:11:19.996Z,5.00
2017-09-17T00:11:24.232Z,4.95
2017-09-17T00:11:28.463Z,5.00
2017-09-17T00:11:32.715Z,4.90
2017-09-17T00:11:36.947Z,4.80
2017-09-17T00:11:41.317Z,4.70
2017-09-17T00:11:45.568Z,4.60
2017-09-17T00:11:49.810Z,4.70
2017-09-17T00:11:54.046Z,4.70
2017-09-17T00:11:59.064Z,4.60
2017-09-17T00:12:04.068Z,4.70
2017-09-17T00:12:09.090Z,4.73
2017-09-17T00:12:13.334Z,4.70
2017-09-17T00:12:17.571Z,4.70
2017-09-17T00:12:21.826Z,4.70
2017-09-17T00:12:26.054Z,4.70
2017-09-17T00:12:30.306Z,4.80
2017-09-17T00:12:34.552Z,4.80
2017-09-17T00:12:38.782Z,4.80
2017-09-17T00:12:43.015Z,4.80
2017-09-17T00:12:47.251Z,4.80
2017-09-17T00:12:51.491Z,4.70
2017-09-17T00:12:55.717Z,4.70
2017-09-17T00:12:59.950Z,4.70
2017-09-17T00:13:04.187Z,4.70
2017-09-17T00:13:09.200Z,4.80
2017-09-17T00:13:13.431Z,4.90
2017-09-17T00:13:17.664Z,4.90
2017-09-17T00:13:22.667Z,4.85
2017-09-17T00:13:26.917Z,4.90
2017-09-17T00:13:31.152Z,4.90
2017-09-17T00:13:35.383Z,5.00
2017-09-17T00:13:39.619Z,5.10
2017-09-17T00:13:43.843Z,5.20
2017-09-17T00:13:48.087Z,5.20
2017-09-17T00:13:52.334Z,5.30
2017-09-17T00:13:57.323Z,5.30
2017-09-17T00:14:01.556Z,5.30
2017-09-17T00:14:06.559Z,5.27
2017-09-17T00:14:10.795Z,5.20
2017-09-17T00:14:15.038Z,5.20
2017-09-17T00:14:19.271Z,5.20
2017-09-17T00:14:24.274Z,5.10
2017-09-17T00:14:29.271Z,5.00
2017-09-17T00:14:33.508Z,5.03
2017-09-17T00:14:38.506Z,4.87
2017-09-17T00:14:43.507Z,4.87
2017-09-17T00:14:47.752Z,4.90
2017-09-17T00:14:51.992Z,4.90
2017-09-17T00:14:56.223Z,4.90
2017-09-17T00:15:01.298Z,4.90
2017-09-17T00:15:05.614Z,4.87
2017-09-17T00:15:09.871Z,5.00
2017-09-17T00:15:14.115Z,4.90
2017-09-17T00:15:18.351Z,4.90
2017-09-17T00:15:23.351Z,4.90
2017-09-17T00:15:27.595Z,4.90
2017-09-17T00:15:31.827Z,4.90
2017-09-17T00:15:36.070Z,4.90
2017-09-17T00:15:41.071Z,4.90
2017-09-17T00:15:45.303Z,4.80
2017-09-17T00:15:49.547Z,4.70
2017-09-17T00:15:53.840Z,4.70
2017-09-17T00:15:58.063Z,4.70
2017-09-17T00:16:02.303Z,4.73
2017-09-17T00:16:06.538Z,4.65
2017-09-17T00:16:10.775Z,4.60
2017-09-17T00:16:15.018Z,4.70
2017-09-17T00:16:19.252Z,4.77
2017-09-17T00:16:23.491Z,4.80
2017-09-17T00:16:28.525Z,4.80
2017-09-17T00:16:32.763Z,4.80
2017-09-17T00:16:36.999Z,4.77
2017-09-17T00:16:42.003Z,4.80
2017-09-17T00:16:46.252Z,4.80
2017-09-17T00:16:50.492Z,4.80
2017-09-17T00:16:54.715Z,4.80
2017-09-17T00:16:59.718Z,4.70
2017-09-17T00:17:03.964Z,4.70
2017-09-17T00:17:08.195Z,4.70
2017-09-17T00:17:12.424Z,4.80
2017-09-17T00:17:16.667Z,4.90
2017-09-17T00:17:20.925Z,4.80
2017-09-17T00:17:25.180Z,4.80
2017-09-17T00:17:29.411Z,4.80
2017-09-17T00:17:33.667Z,4.80
2017-09-17T00:17:38.806Z,5.00
2017-09-17T00:17:43.036Z,5.00
2017-09-17T00:17:47.276Z,5.00
2017-09-17T00:17:51.513Z,5.10
2017-09-17T00:17:56.011Z,5.17
2017-09-17T00:18:00.236Z,5.30
2017-09-17T00:18:04.707Z,5.40
2017-09-17T00:18:09.043Z,5.50
2017-09-17T00:18:13.290Z,5.35
2017-09-17T00:18:17.535Z,5.20
2017-09-17T00:18:21.780Z,5.30
2017-09-17T00:18:26.019Z,5.30
2017-09-17T00:18:30.272Z,5.40
2017-09-17T00:18:35.306Z,5.23
2017-09-17T00:18:40.323Z,5.10
2017-09-17T00:18:44.634Z,4.97
2017-09-17T00:18:48.876Z,4.95
2017-09-17T00:18:53.111Z,5.00
2017-09-17T00:18:58.111Z,4.90
2017-09-17T00:19:02.348Z,4.87
2017-09-17T00:19:06.591Z,4.65
2017-09-17T00:19:10.824Z,4.60
2017-09-17T00:19:15.823Z,4.70
2017-09-17T00:19:20.052Z,4.80
2017-09-17T00:19:25.060Z,4.70
2017-09-17T00:19:30.084Z,4.70
2017-09-17T00:19:35.079Z,4.67
2017-09-17T00:19:39.325Z,4.77
2017-09-17T00:19:43.559Z,4.90
2017-09-17T00:19:47.789Z,5.00
2017-09-17T00:19:52.780Z,5.00
2017-09-17T00:19:57.018Z,5.00
2017-09-17T00:20:02.014Z,5.00
2017-09-17T00:20:06.259Z,5.07
2017-09-17T00:20:10.487Z,5.10
2017-09-17T00:20:14.723Z,5.10
2017-09-17T00:20:19.728Z,5.07
2017-09-17T00:20:23.994Z,4.93
2017-09-17T00:20:28.248Z,4.90
2017-09-17T00:20:33.282Z,4.90
2017-09-17T00:20:37.866Z,4.97
2017-09-17T00:20:42.111Z,4.80
2017-09-17T00:20:46.348Z,4.70
2017-09-17T00:20:50.600Z,4.70
2017-09-17T00:20:54.822Z,4.67
2017-09-17T00:20:59.068Z,4.60
2017-09-17T00:21:04.084Z,4.60
2017-09-17T00:21:09.119Z,4.53
2017-09-17T00:21:14.114Z,4.50
2017-09-17T00:21:18.352Z,4.50
2017-09-17T00:21:22.583Z,4.60
2017-09-17T00:21:26.826Z,4.53
2017-09-17T00:21:31.831Z,4.40
2017-09-17T00:21:36.099Z,4.47
2017-09-17T00:21:40.331Z,4.50
2017-09-17T00:21:44.571Z,4.57
2017-09-17T00:21:48.826Z,4.60
2017-09-17T00:21:53.066Z,4.65
2017-09-17T00:21:57.295Z,4.80
2017-09-17T00:22:01.531Z,4.80
2017-09-17T00:22:05.792Z,4.90
2017-09-17T00:22:10.032Z,4.90
2017-09-17T00:22:14.267Z,4.80
2017-09-17T00:22:18.507Z,4.80
2017-09-17T00:22:22.759Z,4.80
2017-09-17T00:22:27.000Z,4.85
2017-09-17T00:22:31.227Z,4.90
2017-09-17T00:22:35.486Z,4.93
2017-09-17T00:22:39.707Z,4.80
2017-09-17T00:22:43.943Z,4.70
2017-09-17T00:22:48.951Z,4.70
2017-09-17T00:22:53.951Z,4.63
2017-09-17T00:22:58.204Z,4.50
2017-09-17T00:23:02.460Z,4.47
2017-09-17T00:23:06.695Z,4.45
2017-09-17T00:23:10.923Z,4.60
2017-09-17T00:23:15.927Z,4.60
2017-09-17T00:23:20.159Z,4.60
2017-09-17T00:23:24.402Z,4.60
2017-09-17T00:23:28.643Z,4.60
2017-09-17T00:23:32.890Z,4.60
2017-09-17T00:23:37.892Z,4.73
2017-09-17T00:23:42.155Z,4.80
2017-09-17T00:23:46.404Z,4.80
2017-09-17T00:23:51.398Z,4.80
2017-09-17T00:23:55.680Z,4.90
2017-09-17T00:23:59.914Z,4.80
2017-09-17T00:24:04.168Z,4.80
2017-09-17T00:24:08.395Z,4.70
2017-09-17T00:24:12.627Z,4.60
2017-09-17T00:24:17.627Z,4.57
2017-09-17T00:24:21.859Z,4.50
2017-09-17T00:24:26.108Z,4.60
2017-09-17T00:24:30.330Z,4.50
2017-09-17T00:24:35.339Z,4.45
2017-09-17T00:24:39.571Z,4.30
2017-09-17T00:24:44.625Z,4.43
2017-09-17T00:24:48.872Z,4.63
2017-09-17T00:24:53.883Z,4.70
2017-09-17T00:24:58.120Z,4.70
2017-09-17T00:25:02.353Z,4.70
2017-09-17T00:25:06.601Z,4.80
2017-09-17T00:25:11.604Z,4.90
2017-09-17T00:25:16.603Z,4.90
2017-09-17T00:25:20.983Z,5.00
2017-09-17T00:25:25.219Z,4.95
2017-09-17T00:25:29.455Z,5.00
2017-09-17T00:25:33.696Z,4.90
2017-09-17T00:25:37.950Z,4.90
2017-09-17T00:25:42.191Z,4.90
2017-09-17T00:25:46.420Z,4.85
2017-09-17T00:25:50.674Z,4.80
2017-09-17T00:25:54.898Z,4.70
2017-09-17T00:25:59.143Z,4.70
2017-09-17T00:26:03.388Z,4.70
2017-09-17T00:26:07.631Z,4.60
2017-09-17T00:26:12.631Z,4.65
2017-09-17T00:26:16.879Z,4.80
2017-09-17T00:26:21.111Z,4.75
2017-09-17T00:26:25.363Z,4.80
2017-09-17T00:26:29.599Z,4.80
2017-09-17T00:26:33.863Z,4.90
2017-09-17T00:26:38.854Z,4.90
2017-09-17T00:26:43.095Z,4.83
2017-09-17T00:26:47.340Z,4.80
2017-09-17T00:26:51.575Z,4.60
2017-09-17T00:26:56.573Z,4.60
2017-09-17T00:27:00.813Z,4.60
2017-09-17T00:27:05.064Z,4.50
2017-09-17T00:27:09.322Z,4.37
2017-09-17T00:27:13.561Z,4.10
2017-09-17T00:27:17.792Z,4.00
2017-09-17T00:27:22.112Z,4.03
2017-09-17T00:27:26.349Z,4.10
2017-09-17T00:27:30.579Z,4.10
2017-09-17T00:27:35.601Z,4.10
2017-09-17T00:27:39.820Z,4.00
2017-09-17T00:27:44.077Z,4.03
2017-09-17T00:27:49.087Z,4.10
2017-09-17T00:27:53.326Z,4.27
2017-09-17T00:27:57.559Z,4.30
2017-09-17T00:28:01.803Z,4.40
2017-09-17T00:28:06.048Z,4.57
2017-09-17T00:28:10.282Z,4.70
2017-09-17T00:28:14.509Z,4.80
2017-09-17T00:28:19.511Z,4.80
2017-09-17T00:28:24.522Z,4.77
2017-09-17T00:28:28.791Z,4.70
2017-09-17T00:28:33.027Z,4.70
2017-09-17T00:28:37.267Z,4.80
2017-09-17T00:28:41.500Z,4.90
2017-09-17T00:28:45.743Z,4.80
2017-09-17T00:28:50.751Z,4.90
2017-09-17T00:28:54.982Z,4.80
2017-09-17T00:28:59.224Z,4.80
2017-09-17T00:29:03.464Z,4.90
2017-09-17T00:29:07.703Z,5.00
2017-09-17T00:29:11.935Z,5.00
2017-09-17T00:29:16.176Z,5.00
2017-09-17T00:29:21.180Z,5.00
2017-09-17T00:29:25.424Z,5.10
2017-09-17T00:29:29.667Z,5.10
2017-09-17T00:29:33.903Z,5.25
2017-09-17T00:29:38.135Z,5.25
2017-09-17T00:29:42.388Z,5.20
2017-09-17T00:29:47.383Z,5.30
2017-09-17T00:29:51.630Z,5.33
2017-09-17T00:29:55.889Z,5.40
2017-09-17T00:30:00.109Z,5.35
2017-09-17T00:30:05.099Z,5.13
2017-09-17T00:30:09.347Z,5.20
2017-09-17T00:30:13.579Z,5.40
2017-09-17T00:30:17.823Z,5.50
2017-09-17T00:30:22.816Z,5.40
2017-09-17T00:30:27.051Z,5.40
2017-09-17T00:30:31.303Z,5.40
2017-09-17T00:30:35.533Z,5.40
2017-09-17T00:30:40.534Z,5.50
2017-09-17T00:30:44.815Z,5.37
2017-09-17T00:30:49.828Z,5.20
2017-09-17T00:30:54.067Z,5.10
2017-09-17T00:30:59.071Z,5.15
2017-09-17T00:31:03.315Z,5.10
2017-09-17T00:31:07.548Z,5.00
2017-09-17T00:31:11.779Z,4.90
2017-09-17T00:31:16.782Z,4.80
2017-09-17T00:31:21.029Z,4.80
2017-09-17T00:31:25.263Z,4.80
2017-09-17T00:31:29.491Z,4.70
2017-09-17T00:31:33.732Z,4.70
2017-09-17T00:31:37.979Z,4.70
2017-09-17T00:31:42.210Z,4.70
2017-09-17T00:31:47.212Z,4.80
2017-09-17T00:31:51.456Z,4.80
2017-09-17T00:31:55.688Z,4.80
2017-09-17T00:31:59.935Z,4.80
2017-09-17T00:32:04.177Z,4.70
2017-09-17T00:32:08.435Z,4.70
2017-09-17T00:32:12.678Z,4.70
2017-09-17T00:32:17.679Z,4.60
2017-09-17T00:32:21.955Z,4.67
2017-09-17T00:32:26.191Z,4.65
2017-09-17T00:32:30.415Z,4.70
2017-09-17T00:32:34.659Z,4.67
2017-09-17T00:32:38.914Z,4.55
2017-09-17T00:32:43.155Z,4.60
2017-09-17T00:32:47.407Z,4.60
2017-09-17T00:32:51.648Z,4.73
2017-09-17T00:32:56.660Z,4.80
2017-09-17T00:33:01.724Z,4.93
2017-09-17T00:33:05.955Z,5.20
2017-09-17T00:33:10.187Z,5.20
2017-09-17T00:33:15.183Z,5.17
2017-09-17T00:33:19.421Z,5.13
2017-09-17T00:33:23.647Z,5.20
2017-09-17T00:33:27.882Z,5.20
2017-09-17T00:33:32.883Z,5.20
2017-09-17T00:33:37.119Z,5.20
2017-09-17T00:33:42.119Z,5.20
2017-09-17T00:33:47.123Z,5.20
2017-09-17T00:33:51.385Z,5.13
2017-09-17T00:33:55.611Z,5.10
2017-09-17T00:33:59.847Z,4.95
2017-09-17T00:34:04.083Z,4.90
2017-09-17T00:34:08.355Z,4.90
2017-09-17T00:34:13.363Z,4.90
2017-09-17T00:34:18.375Z,5.00
2017-09-17T00:34:23.385Z,4.90
2017-09-17T00:34:27.611Z,4.90
2017-09-17T00:34:31.861Z,4.90
2017-09-17T00:34:36.125Z,4.90
2017-09-17T00:34:40.355Z,4.90
2017-09-17T00:34:44.606Z,4.90
2017-09-17T00:34:49.601Z,4.80
2017-09-17T00:34:53.843Z,4.93
2017-09-17T00:34:58.075Z,5.03
2017-09-17T00:35:02.324Z,5.00
2017-09-17T00:35:06.680Z,5.00
2017-09-17T00:35:10.940Z,5.00
2017-09-17T00:35:15.187Z,5.00
2017-09-17T00:35:19.427Z,5.10
2017-09-17T00:35:24.423Z,5.00
2017-09-17T00:35:29.456Z,5.10
2017-09-17T00:35:34.455Z,5.20
2017-09-17T00:35:38.695Z,5.20
2017-09-17T00:35:42.936Z,5.30
2017-09-17T00:35:47.175Z,5.40
2017-09-17T00:35:52.167Z,5.35
2017-09-17T00:35:56.404Z,5.20
2017-09-17T00:36:00.643Z,5.10
2017-09-17T00:36:04.898Z,5.00
2017-09-17T00:36:09.895Z,5.00
2017-09-17T00:36:14.127Z,4.90
2017-09-17T00:36:18.367Z,4.90
2017-09-17T00:36:22.611Z,4.90
2017-09-17T00:36:27.615Z,4.80
2017-09-17T00:36:32.637Z,4.70
2017-09-17T00:36:36.864Z,4.77
2017-09-17T00:36:41.095Z,4.80
2017-09-17T00:36:45.322Z,4.70
2017-09-17T00:36:49.564Z,4.70
2017-09-17T00:36:53.791Z,4.70
2017-09-17T00:36:58.023Z,4.80
2017-09-17T00:37:02.267Z,4.85
2017-09-17T00:37:06.506Z,4.90
2017-09-17T00:37:10.760Z,5.05
2017-09-17T00:37:14.990Z,5.20
2017-09-17T00:37:19.235Z,5.20
2017-09-17T00:37:24.256Z,5.20
2017-09-17T00:37:29.256Z,5.20
2017-09-17T00:37:33.483Z,5.20
2017-09-17T00:37:38.522Z,5.20
2017-09-17T00:37:42.751Z,5.20
2017-09-17T00:37:46.980Z,5.30
2017-09-17T00:37:51.239Z,5.40
2017-09-17T00:37:55.467Z,5.50
2017-09-17T00:37:59.708Z,5.60
2017-09-17T00:38:03.996Z,5.60
2017-09-17T00:38:08.998Z,5.60
2017-09-17T00:38:13.302Z,5.57
2017-09-17T00:38:17.538Z,5.40
2017-09-17T00:38:21.767Z,5.40
2017-09-17T00:38:25.998Z,5.37
2017-09-17T00:38:30.239Z,5.30
2017-09-17T00:38:34.494Z,5.20
2017-09-17T00:38:38.964Z,5.10
2017-09-17T00:38:43.187Z,5.00
2017-09-17T00:38:47.493Z,4.80
2017-09-17T00:38:51.734Z,4.80
2017-09-17T00:38:55.978Z,4.77
2017-09-17T00:39:00.202Z,4.70
2017-09-17T00:39:04.459Z,4.70
2017-09-17T00:39:08.696Z,4.80
2017-09-17T00:39:12.943Z,4.80
2017-09-17T00:39:17.183Z,4.90
2017-09-17T00:39:21.418Z,4.90
2017-09-17T00:39:25.668Z,4.90
2017-09-17T00:39:30.783Z,4.95
2017-09-17T00:39:35.003Z,5.03
2017-09-17T00:39:39.272Z,5.10
2017-09-17T00:39:43.537Z,5.10
2017-09-17T00:39:48.535Z,5.20
2017-09-17T00:39:52.831Z,5.20
2017-09-17T00:39:57.073Z,5.20
2017-09-17T00:40:01.290Z,5.20
2017-09-17T00:40:05.527Z,5.13
2017-09-17T00:40:09.762Z,5.00
2017-09-17T00:40:14.754Z,4.90
2017-09-17T00:40:18.992Z,4.90
2017-09-17T00:40:23.223Z,4.90
2017-09-17T00:40:27.480Z,4.90
2017-09-17T00:40:31.715Z,4.85
2017-09-17T00:40:35.959Z,4.80
2017-09-17T00:40:40.187Z,4.80
2017-09-17T00:40:44.499Z,4.77
2017-09-17T00:40:48.723Z,4.75
2017-09-17T00:40:52.966Z,4.80
2017-09-17T00:40:57.973Z,4.70
2017-09-17T00:41:02.227Z,4.80
2017-09-17T00:41:06.747Z,4.80
2017-09-17T00:41:10.977Z,4.90
2017-09-17T00:41:15.213Z,5.07
2017-09-17T00:41:19.451Z,5.10
2017-09-17T00:41:23.716Z,5.10
2017-09-17T00:41:28.703Z,4.95
2017-09-17T00:41:34.043Z,4.90
2017-09-17T00:41:39.035Z,4.93
2017-09-17T00:41:43.271Z,4.90
2017-09-17T00:41:47.518Z,5.10
2017-09-17T00:41:51.780Z,5.00
2017-09-17T00:41:56.011Z,5.07
2017-09-17T00:42:00.259Z,5.00
2017-09-17T00:42:05.265Z,5.00
2017-09-17T00:42:10.265Z,4.93
2017-09-17T00:42:14.496Z,4.77
2017-09-17T00:42:19.487Z,4.80
2017-09-17T00:42:23.731Z,4.87
2017-09-17T00:42:27.982Z,4.97
2017-09-17T00:42:32.451Z,4.90
2017-09-17T00:42:36.699Z,4.90
2017-09-17T00:42:40.939Z,4.90
2017-09-17T00:42:45.175Z,4.85
2017-09-17T00:42:49.411Z,4.70
2017-09-17T00:42:54.411Z,4.70
2017-09-17T00:42:59.415Z,4.60
2017-09-17T00:43:03.712Z,4.60
2017-09-17T00:43:07.960Z,4.70
2017-09-17T00:43:12.192Z,4.75
2017-09-17T00:43:16.424Z,4.80
2017-09-17T00:43:20.674Z,4.80
2017-09-17T00:43:24.907Z,4.70
2017-09-17T00:43:29.143Z,4.80
2017-09-17T00:43:34.149Z,4.95
2017-09-17T00:43:38.381Z,5.00
2017-09-17T00:43:42.618Z,5.10
2017-09-17T00:43:46.863Z,5.10
2017-09-17T00:43:51.859Z,5.10
2017-09-17T00:43:56.099Z,5.13
2017-09-17T00:44:00.338Z,5.20
2017-09-17T00:44:04.597Z,5.20
2017-09-17T00:44:08.830Z,5.10
2017-09-17T00:44:13.071Z,5.20
2017-09-17T00:44:18.075Z,5.20
2017-09-17T00:44:22.308Z,5.20
2017-09-17T00:44:26.545Z,5.20
2017-09-17T00:44:30.780Z,5.10
2017-09-17T00:44:35.013Z,5.10
2017-09-17T00:44:39.275Z,5.10
2017-09-17T00:44:43.506Z,5.10
2017-09-17T00:44:47.742Z,5.10
2017-09-17T00:44:51.967Z,5.10
2017-09-17T00:44:56.212Z,5.10
2017-09-17T00:45:00.447Z,5.10
2017-09-17T00:45:04.683Z,5.10
2017-09-17T00:45:09.692Z,5.20
2017-09-17T00:45:13.927Z,5.07
2017-09-17T00:45:18.175Z,5.00
2017-09-17T00:45:22.404Z,5.10
2017-09-17T00:45:27.400Z,5.05
2017-09-17T00:45:31.639Z,5.00
2017-09-17T00:45:35.887Z,5.10
2017-09-17T00:45:40.135Z,5.07
2017-09-17T00:45:45.144Z,5.15
2017-09-17T00:45:50.148Z,5.10
2017-09-17T00:45:54.388Z,5.10
2017-09-17T00:45:59.025Z,5.10
2017-09-17T00:46:03.244Z,5.20
2017-09-17T00:46:16.979Z,5.07
2017-09-17T00:46:21.260Z,4.90
2017-09-17T00:46:25.477Z,4.90
2017-09-17T00:46:29.711Z,4.87
2017-09-17T00:46:33.947Z,4.80
2017-09-17T00:46:38.188Z,4.70
2017-09-17T00:46:43.183Z,4.70
2017-09-17T00:46:47.419Z,4.70
2017-09-17T00:46:51.666Z,4.70
2017-09-17T00:46:55.895Z,4.80
2017-09-17T00:47:00.126Z,4.70
2017-09-17T00:47:04.391Z,4.65
2017-09-17T00:47:08.628Z,4.60
2017-09-17T00:47:12.858Z,4.70
2017-09-17T00:47:17.101Z,4.80
2017-09-17T00:47:22.110Z,4.90
2017-09-17T00:47:26.354Z,4.90
2017-09-17T00:47:30.603Z,5.03
2017-09-17T00:47:34.857Z,5.10
2017-09-17T00:47:39.087Z,5.10
2017-09-17T00:47:43.323Z,5.00
2017-09-17T00:47:48.323Z,5.20
2017-09-17T00:47:52.567Z,5.20
2017-09-17T00:47:56.795Z,5.20
2017-09-17T00:48:01.831Z,5.20
2017-09-17T00:48:06.067Z,5.20
2017-09-17T00:48:11.068Z,5.30
2017-09-17T00:48:16.067Z,5.30
2017-09-17T00:48:20.317Z,5.30
2017-09-17T00:48:24.547Z,5.30
2017-09-17T00:48:28.831Z,5.30
2017-09-17T00:48:33.055Z,5.30
2017-09-17T00:48:37.303Z,5.20
2017-09-17T00:48:42.572Z,5.30
2017-09-17T00:48:46.791Z,5.20
2017-09-17T00:48:51.032Z,5.10
2017-09-17T00:48:55.276Z,5.10
2017-09-17T00:48:59.509Z,5.10
2017-09-17T00:49:04.503Z,5.20
2017-09-17T00:49:08.745Z,5.20
2017-09-17T00:49:13.739Z,5.20
2017-09-17T00:49:17.983Z,5.20
2017-09-17T00:49:22.220Z,5.10
2017-09-17T00:49:26.450Z,5.20
2017-09-17T00:49:31.451Z,5.20
2017-09-17T00:49:35.699Z,5.37
2017-09-17T00:49:40.220Z,5.37
2017-09-17T00:49:44.723Z,5.30
2017-09-17T00:49:48.969Z,5.37
2017-09-17T00:49:53.208Z,5.50
2017-09-17T00:49:57.442Z,5.60
2017-09-17T00:50:01.711Z,5.67
2017-09-17T00:50:05.958Z,5.60
2017-09-17T00:50:10.204Z,5.60
2017-09-17T00:50:14.439Z,5.60
2017-09-17T00:50:18.683Z,5.50
2017-09-17T00:50:22.923Z,5.50
2017-09-17T00:50:27.154Z,5.40
2017-09-17T00:50:31.387Z,5.25
2017-09-17T00:50:36.399Z,5.27
2017-09-17T00:50:41.411Z,5.47
2017-09-17T00:50:46.418Z,5.50
2017-09-17T00:50:50.659Z,5.40
2017-09-17T00:50:54.907Z,5.30
2017-09-17T00:50:59.151Z,5.15
2017-09-17T00:51:03.384Z,5.10
2017-09-17T00:51:07.619Z,5.30
2017-09-17T00:51:11.851Z,5.20
2017-09-17T00:51:16.089Z,5.25
2017-09-17T00:51:20.406Z,5.27
2017-09-17T00:51:24.632Z,5.40
2017-09-17T00:51:29.622Z,5.30
2017-09-17T00:51:33.886Z,5.40
2017-09-17T00:51:38.096Z,5.35
2017-09-17T00:51:42.339Z,5.20
2017-09-17T00:51:47.351Z,5.30
2017-09-17T00:51:51.591Z,5.43
2017-09-17T00:51:55.823Z,5.55
2017-09-17T00:52:00.059Z,5.70
2017-09-17T00:52:04.303Z,5.65
2017-09-17T00:52:08.532Z,5.50
2017-09-17T00:52:12.775Z,5.50
2017-09-17T00:52:17.036Z,5.53
2017-09-17T00:52:21.275Z,5.60
2017-09-17T00:52:25.532Z,5.50
2017-09-17T00:52:29.791Z,5.60
2017-09-17T00:52:34.050Z,5.60
2017-09-17T00:52:38.340Z,5.50
2017-09-17T00:52:42.579Z,5.50
2017-09-17T00:52:46.832Z,5.40
2017-09-17T00:52:51.083Z,5.30
2017-09-17T00:52:55.320Z,5.10
2017-09-17T00:52:59.560Z,5.00
2017-09-17T00:53:04.559Z,5.00
2017-09-17T00:53:08.807Z,5.00
2017-09-17T00:53:13.055Z,4.90
2017-09-17T00:53:17.287Z,4.90
2017-09-17T00:53:22.288Z,4.90
2017-09-17T00:53:27.292Z,4.90
2017-09-17T00:53:31.550Z,4.80
2017-09-17T00:53:35.796Z,4.73
2017-09-17T00:53:40.047Z,4.75
2017-09-17T00:53:44.275Z,4.80
2017-09-17T00:53:48.509Z,4.80
2017-09-17T00:53:53.511Z,4.97
2017-09-17T00:53:57.757Z,5.00
2017-09-17T00:54:01.992Z,5.15
2017-09-17T00:54:06.223Z,5.20
2017-09-17T00:54:10.490Z,5.40
2017-09-17T00:54:14.722Z,5.45
2017-09-17T00:54:19.728Z,5.50
2017-09-17T00:54:23.963Z,5.40
2017-09-17T00:54:28.956Z,5.50
2017-09-17T00:54:33.196Z,5.50
2017-09-17T00:54:37.444Z,5.53
2017-09-17T00:54:41.802Z,5.60
2017-09-17T00:54:46.805Z,5.65
2017-09-17T00:54:51.159Z,5.80
2017-09-17T00:54:55.405Z,5.60
2017-09-17T00:54:59.635Z,5.70
2017-09-17T00:55:03.877Z,5.70
2017-09-17T00:55:08.959Z,5.65
2017-09-17T00:55:13.195Z,5.80
2017-09-17T00:55:17.426Z,5.95
2017-09-17T00:55:21.669Z,5.95
2017-09-17T00:55:25.907Z,5.90
2017-09-17T00:55:30.912Z,5.90
2017-09-17T00:55:35.168Z,5.90
2017-09-17T00:55:39.395Z,5.80
2017-09-17T00:55:43.635Z,5.80
2017-09-17T00:55:47.880Z,5.60
2017-09-17T00:55:52.198Z,5.60
2017-09-17T00:55:56.431Z,5.60
2017-09-17T00:56:01.452Z,5.35
2017-09-17T00:56:06.461Z,5.33
2017-09-17T00:56:11.487Z,5.27
2017-09-17T00:56:16.490Z,5.10
2017-09-17T00:56:20.720Z,5.00
2017-09-17T00:56:24.962Z,5.03
2017-09-17T00:56:29.195Z,5.10
2017-09-17T00:56:34.200Z,5.15
2017-09-17T00:56:38.452Z,5.20
2017-09-17T00:56:42.701Z,5.20
2017-09-17T00:56:46.943Z,5.20
2017-09-17T00:56:51.192Z,5.20
2017-09-17T00:56:55.414Z,5.30
2017-09-17T00:57:00.419Z,5.30
2017-09-17T00:57:04.687Z,5.33
2017-09-17T00:57:08.923Z,5.40
2017-09-17T00:57:13.171Z,5.40
2017-09-17T00:57:17.391Z,5.40
2017-09-17T00:57:21.637Z,5.37
2017-09-17T00:57:26.655Z,5.25
2017-09-17T00:57:31.731Z,5.10
2017-09-17T00:57:36.063Z,5.03
2017-09-17T00:57:40.299Z,5.10
2017-09-17T00:57:44.539Z,5.10
2017-09-17T00:57:48.771Z,5.10
2017-09-17T00:57:53.784Z,5.10
2017-09-17T00:57:58.788Z,5.00
2017-09-17T00:58:03.360Z,5.00
2017-09-17T00:58:07.593Z,5.00
2017-09-17T00:58:11.854Z,4.90
2017-09-17T00:58:16.089Z,4.90
2017-09-17T00:58:20.328Z,4.90
2017-09-17T00:58:24.567Z,4.90
2017-09-17T00:58:29.575Z,5.00
2017-09-17T00:58:33.820Z,5.00
2017-09-17T00:58:38.821Z,4.90
2017-09-17T00:58:43.072Z,4.80
2017-09-17T00:58:47.456Z,4.80
2017-09-17T00:58:52.451Z,4.70
2017-09-17T00:58:56.691Z,4.70